createdAt,value
2023-05-02T00:00:10.420Z,47.6133
2023-05-02T00:01:11.821Z,47.5760
2023-05-02T00:02:13.231Z,47.5828
2023-05-02T00:03:14.666Z,47.6848
2023-05-02T00:04:16.137Z,47.6458
2023-05-02T00:05:17.457Z,47.7162
2023-05-02T00:06:18.948Z,47.6356
2023-05-02T00:07:20.349Z,47.6513
2023-05-02T00:08:21.718Z,47.7058
2023-05-02T00:09:23.290Z,47.7299
2023-05-02T00:10:24.643Z,47.7793
2023-05-02T00:11:26.143Z,47.6743
2023-05-02T00:12:27.402Z,47.6558
2023-05-02T00:13:28.913Z,47.6598
2023-05-02T00:14:30.309Z,47.7354
2023-05-02T00:15:31.780Z,47.8194
2023-05-02T00:16:33.302Z,47.8303
2023-05-02T00:17:34.690Z,47.8368
2023-05-02T00:18:36.025Z,47.7565
2023-05-02T00:19:37.447Z,47.7783
2023-05-02T00:20:38.966Z,47.8187
2023-05-02T00:21:40.326Z,47.6994
2023-05-02T00:22:41.672Z,47.7638
2023-05-02T00:23:43.118Z,47.8021
2023-05-02T00:24:44.518Z,47.8149
2023-05-02T00:25:46.007Z,47.7041
2023-05-02T00:26:47.463Z,47.7794
2023-05-02T00:27:48.797Z,47.7607
2023-05-02T00:28:50.145Z,47.8059
2023-05-02T00:29:51.671Z,47.7776
2023-05-02T00:30:53.090Z,47.8211
2023-05-02T00:31:54.569Z,47.8163
2023-05-02T00:32:55.973Z,47.7286
2023-05-02T00:33:57.390Z,47.7790
2023-05-02T00:34:58.766Z,47.7633
2023-05-02T00:36:00.210Z,47.7742
2023-05-02T00:37:01.600Z,47.7582
2023-05-02T00:38:03.102Z,47.7606
2023-05-02T00:39:04.409Z,47.7729
2023-05-02T00:40:05.889Z,47.8322
2023-05-02T00:41:07.237Z,47.7459
2023-05-02T00:42:08.694Z,47.6915
2023-05-02T00:43:10.098Z,47.8041
2023-05-02T00:44:11.537Z,47.6887
2023-05-02T00:45:12.920Z,47.5563
2023-05-02T00:46:14.374Z,47.6178
2023-05-02T00:47:15.793Z,47.7071
2023-05-02T00:48:17.205Z,47.7265
2023-05-02T00:49:18.541Z,47.7826
2023-05-02T00:50:20.036Z,47.6829
2023-05-02T00:51:21.418Z,47.5967
2023-05-02T00:52:22.931Z,47.7265
2023-05-02T00:53:24.264Z,47.7467
2023-05-02T00:54:25.726Z,47.7329
2023-05-02T00:55:27.103Z,47.6915
2023-05-02T00:56:28.545Z,47.3142
2023-05-02T00:57:30.006Z,47.3017
2023-05-02T00:58:31.418Z,47.3149
2023-05-02T00:59:32.798Z,47.4526
2023-05-02T01:00:34.246Z,47.5049
2023-05-02T01:01:35.576Z,47.5847
2023-05-02T01:02:37.279Z,47.4837
2023-05-02T01:03:38.590Z,47.4451
2023-05-02T01:04:39.980Z,47.5979
2023-05-02T01:05:41.329Z,47.5927
2023-05-02T01:06:42.898Z,47.5116
2023-05-02T01:07:44.179Z,47.3652
2023-05-02T01:08:45.600Z,47.3945
2023-05-02T01:09:46.991Z,47.5430
2023-05-02T01:10:48.416Z,47.5641
2023-05-02T01:11:49.820Z,47.6237
2023-05-02T01:12:51.307Z,47.5289
2023-05-02T01:13:52.662Z,47.5009
2023-05-02T01:14:54.134Z,47.4581
2023-05-02T01:15:55.506Z,47.4900
2023-05-02T01:16:56.996Z,47.6144
2023-05-02T01:17:58.499Z,47.7235
2023-05-02T01:18:59.818Z,47.7154
2023-05-02T01:20:01.331Z,47.6932
2023-05-02T01:21:02.657Z,47.6793
2023-05-02T01:22:04.066Z,47.6907
2023-05-02T01:23:05.456Z,47.7705
2023-05-02T01:24:06.863Z,47.6414
2023-05-02T01:25:08.178Z,47.6005
2023-05-02T01:26:09.715Z,47.6876
2023-05-02T01:27:11.105Z,47.6890
2023-05-02T01:28:12.595Z,47.6167
2023-05-02T01:29:13.859Z,47.5805
2023-05-02T01:30:15.400Z,47.6003
2023-05-02T01:31:16.826Z,47.7483
2023-05-02T01:32:18.250Z,47.7342
2023-05-02T01:33:19.684Z,47.6602
2023-05-02T01:34:21.091Z,47.6981
2023-05-02T01:35:22.402Z,47.6279
2023-05-02T01:36:23.943Z,47.6251
2023-05-02T01:37:25.328Z,47.6991
2023-05-02T01:38:26.842Z,47.6603
2023-05-02T01:39:28.122Z,47.6602
2023-05-02T01:40:29.585Z,47.7135
2023-05-02T01:41:30.974Z,47.6794
2023-05-02T01:42:32.423Z,47.7488
2023-05-02T01:43:33.834Z,47.7616
2023-05-02T01:44:35.260Z,47.6857
2023-05-02T01:45:36.621Z,47.6683
2023-05-02T01:46:38.176Z,47.7407
2023-05-02T01:47:39.509Z,47.7246
2023-05-02T01:48:40.975Z,47.6826
2023-05-02T01:49:42.342Z,47.7189
2023-05-02T01:50:43.800Z,47.7059
2023-05-02T01:51:45.117Z,47.6404
2023-05-02T01:52:46.641Z,47.6811
2023-05-02T01:53:48.094Z,47.6745
2023-05-02T01:54:49.469Z,47.6583
2023-05-02T01:55:50.844Z,47.7327
2023-05-02T01:56:52.310Z,47.7415
2023-05-02T01:57:53.693Z,47.7180
2023-05-02T01:58:55.190Z,47.7054
2023-05-02T01:59:56.580Z,47.7221
2023-05-02T02:00:58.022Z,47.8433
2023-05-02T02:01:59.362Z,47.8131
2023-05-02T02:03:00.808Z,47.7497
2023-05-02T02:04:02.339Z,47.7821
2023-05-02T02:05:03.699Z,47.7247
2023-05-02T02:06:05.127Z,47.7399
2023-05-02T02:07:06.650Z,47.6059
2023-05-02T02:08:07.948Z,47.6350
2023-05-02T02:09:09.462Z,47.7266
2023-05-02T02:10:10.788Z,47.6449
2023-05-02T02:11:12.235Z,47.5895
2023-05-02T02:12:13.652Z,47.7552
2023-05-02T02:13:15.147Z,47.7475
2023-05-02T02:14:16.499Z,47.6688
2023-05-02T02:15:17.968Z,47.7093
2023-05-02T02:16:19.400Z,47.6794
2023-05-02T02:17:20.762Z,47.6436
2023-05-02T02:18:22.159Z,47.7029
2023-05-02T02:19:23.664Z,47.5994
2023-05-02T02:20:25.068Z,47.5022
2023-05-02T02:21:26.434Z,47.4932
2023-05-02T02:22:27.852Z,47.4793
2023-05-02T02:23:29.341Z,47.5606
2023-05-02T02:24:30.738Z,47.5164
2023-05-02T02:25:32.173Z,47.6380
2023-05-02T02:26:33.530Z,47.5740
2023-05-02T02:27:34.986Z,47.6449
2023-05-02T02:28:36.431Z,47.5993
2023-05-02T02:29:37.875Z,47.5932
2023-05-02T02:30:39.379Z,47.5406
2023-05-02T02:31:40.657Z,47.5531
2023-05-02T02:32:42.146Z,47.6080
2023-05-02T02:33:43.496Z,47.6660
2023-05-02T02:34:45.056Z,47.7565
2023-05-02T02:35:46.389Z,47.6765
2023-05-02T02:36:47.804Z,47.6575
2023-05-02T02:37:49.185Z,47.6333
2023-05-02T02:38:50.652Z,47.6115
2023-05-02T02:39:52.107Z,47.6037
2023-05-02T02:40:53.514Z,47.5611
2023-05-02T02:41:54.902Z,47.5452
2023-05-02T02:42:56.338Z,47.5830
2023-05-02T02:43:57.805Z,47.6161
2023-05-02T02:44:59.174Z,47.6350
2023-05-02T02:46:00.729Z,47.6416
2023-05-02T02:47:02.000Z,47.6512
2023-05-02T02:48:03.492Z,47.6409
2023-05-02T02:49:04.872Z,47.7067
2023-05-02T02:50:06.365Z,47.6486
2023-05-02T02:51:07.772Z,47.6418
2023-05-02T02:52:09.135Z,47.6661
2023-05-02T02:53:10.511Z,47.5672
2023-05-02T02:54:25.411Z,47.6820
2023-05-02T02:55:13.423Z,47.7204
2023-05-02T02:56:14.899Z,47.6564
2023-05-02T02:57:16.224Z,47.6471
2023-05-02T02:58:17.626Z,47.6154
2023-05-02T02:59:19.067Z,47.6814
2023-05-02T03:00:20.604Z,47.6913
2023-05-02T03:01:21.975Z,47.6438
2023-05-02T03:02:23.386Z,47.6267
2023-05-02T03:03:24.872Z,47.6005
2023-05-02T03:04:26.186Z,47.5557
2023-05-02T03:05:27.679Z,47.5889
2023-05-02T03:06:29.187Z,47.5764
2023-05-02T03:07:30.493Z,47.5509
2023-05-02T03:08:31.905Z,47.5331
2023-05-02T03:09:33.316Z,47.5940
2023-05-02T03:10:34.868Z,47.5922
2023-05-02T03:11:36.192Z,47.6059
2023-05-02T03:12:37.653Z,47.6237
2023-05-02T03:13:39.003Z,47.6834
2023-05-02T03:14:40.508Z,47.5222
2023-05-02T03:15:41.919Z,47.6042
2023-05-02T03:16:43.420Z,47.5123
2023-05-02T03:17:44.821Z,47.5645
2023-05-02T03:18:46.229Z,47.4695
2023-05-02T03:19:47.584Z,47.4779
2023-05-02T03:20:48.959Z,47.5065
2023-05-02T03:21:50.504Z,47.5506
2023-05-02T03:22:51.896Z,47.4518
2023-05-02T03:23:53.264Z,47.4119
2023-05-02T03:24:54.687Z,47.5402
2023-05-02T03:25:56.072Z,47.4585
2023-05-02T03:26:57.568Z,47.5279
2023-05-02T03:27:58.953Z,47.5032
2023-05-02T03:29:00.364Z,47.5905
2023-05-02T03:30:02.084Z,47.6583
2023-05-02T03:31:03.260Z,47.5077
2023-05-02T03:32:04.750Z,47.5761
2023-05-02T03:33:06.100Z,47.5436
2023-05-02T03:34:07.513Z,47.4848
2023-05-02T03:35:08.913Z,47.4442
2023-05-02T03:36:10.338Z,47.4626
2023-05-02T03:37:11.759Z,47.4254
2023-05-02T03:38:13.287Z,47.5129
2023-05-02T03:39:14.594Z,47.5611
2023-05-02T03:40:16.052Z,47.5145
2023-05-02T03:41:17.346Z,47.5044
2023-05-02T03:42:18.910Z,47.4862
2023-05-02T03:43:20.332Z,47.4516
2023-05-02T03:44:21.781Z,47.4645
2023-05-02T03:45:23.152Z,47.5279
2023-05-02T03:46:24.617Z,47.6138
2023-05-02T03:47:26.032Z,47.5353
2023-05-02T03:48:27.496Z,47.6203
2023-05-02T03:49:28.805Z,47.4147
2023-05-02T03:50:30.294Z,47.4394
2023-05-02T03:51:31.604Z,47.4380
2023-05-02T03:52:33.125Z,47.3805
2023-05-02T03:53:34.562Z,47.3545
2023-05-02T03:54:36.040Z,47.4126
2023-05-02T03:55:37.405Z,47.5257
2023-05-02T03:56:40.202Z,47.5277
2023-05-02T03:57:40.259Z,47.5899
2023-05-02T03:58:41.721Z,47.5297
2023-05-02T03:59:43.160Z,47.4116
2023-05-02T04:00:44.552Z,47.3306
2023-05-02T04:01:45.969Z,47.3159
2023-05-02T04:02:47.495Z,47.4262
2023-05-02T04:03:48.900Z,47.5669
2023-05-02T04:04:50.287Z,47.5820
2023-05-02T04:05:51.676Z,47.5174
2023-05-02T04:06:53.185Z,47.6171
2023-05-02T04:07:54.469Z,47.5174
2023-05-02T04:08:56.001Z,47.6801
2023-05-02T04:09:57.439Z,47.5873
2023-05-02T04:10:58.748Z,47.5726
2023-05-02T04:12:00.256Z,47.6015
2023-05-02T04:13:01.716Z,47.5068
2023-05-02T04:14:03.164Z,47.3646
2023-05-02T04:15:04.615Z,47.4724
2023-05-02T04:16:05.982Z,47.4063
2023-05-02T04:17:07.543Z,47.3076
2023-05-02T04:18:08.891Z,47.3504
2023-05-02T04:19:10.829Z,47.4222
2023-05-02T04:20:11.696Z,47.3239
2023-05-02T04:21:13.073Z,47.3256
2023-05-02T04:22:14.478Z,47.4006
2023-05-02T04:23:15.922Z,47.4273
2023-05-02T04:24:17.389Z,47.3605
2023-05-02T04:25:18.867Z,47.4247
2023-05-02T04:26:20.108Z,47.3598
2023-05-02T04:27:21.622Z,47.3092
2023-05-02T04:28:23.113Z,47.2586
2023-05-02T04:29:24.506Z,47.1898
2023-05-02T04:30:25.932Z,47.2282
2023-05-02T04:31:27.406Z,47.2592
2023-05-02T04:32:28.802Z,47.2826
2023-05-02T04:33:30.120Z,47.2641
2023-05-02T04:34:31.591Z,47.3046
2023-05-02T04:35:32.987Z,47.3555
2023-05-02T04:36:34.390Z,47.4385
2023-05-02T04:37:35.783Z,47.3553
2023-05-02T04:38:37.224Z,47.2858
2023-05-02T04:39:38.613Z,47.2916
2023-05-02T04:40:40.120Z,47.4864
2023-05-02T04:41:41.486Z,47.4319
2023-05-02T04:42:42.925Z,47.4183
2023-05-02T04:43:44.358Z,47.4122
2023-05-02T04:44:45.814Z,47.3812
2023-05-02T04:45:47.112Z,47.4945
2023-05-02T04:46:48.613Z,47.3921
2023-05-02T04:47:50.028Z,47.3565
2023-05-02T04:48:51.472Z,47.5312
2023-05-02T04:49:52.875Z,47.5096
2023-05-02T04:50:54.403Z,47.4533
2023-05-02T04:51:55.733Z,47.5322
2023-05-02T04:52:57.121Z,47.5086
2023-05-02T04:53:58.523Z,47.5456
2023-05-02T04:55:00.001Z,47.4759
2023-05-02T04:56:01.351Z,47.5038
2023-05-02T04:57:02.792Z,47.5892
2023-05-02T04:58:04.173Z,47.4694
2023-05-02T04:59:05.617Z,47.4380
2023-05-02T05:00:07.042Z,47.3666
2023-05-02T05:01:08.557Z,47.3990
2023-05-02T05:02:09.991Z,47.4131
2023-05-02T05:03:11.383Z,47.5247
2023-05-02T05:04:12.810Z,47.3327
2023-05-02T05:05:14.215Z,46.3582
2023-05-02T05:06:15.676Z,45.3408
2023-05-02T05:07:17.003Z,43.7652
2023-05-02T05:08:18.366Z,42.7542
2023-05-02T05:09:19.881Z,42.1744
2023-05-02T05:10:21.203Z,42.1563
2023-05-02T05:11:23.375Z,42.6851
2023-05-02T05:12:24.095Z,43.2684
2023-05-02T05:13:25.479Z,43.3988
2023-05-02T05:14:26.902Z,43.7542
2023-05-02T05:15:28.322Z,43.4411
2023-05-02T05:16:29.841Z,43.7564
2023-05-02T05:17:31.240Z,44.2387
2023-05-02T05:18:32.589Z,44.1961
2023-05-02T05:19:34.010Z,44.3427
2023-05-02T05:20:35.480Z,44.4587
2023-05-02T05:21:36.892Z,44.6969
2023-05-02T05:22:38.284Z,44.8519
2023-05-02T05:23:39.630Z,44.8565
2023-05-02T05:24:41.080Z,45.1003
2023-05-02T05:25:44.249Z,45.3393
2023-05-02T05:26:43.949Z,45.4351
2023-05-02T05:27:45.355Z,45.6161
2023-05-02T05:28:46.759Z,45.8235
2023-05-02T05:29:48.072Z,46.0043
2023-05-02T05:30:49.621Z,46.1363
2023-05-02T05:31:51.074Z,46.1311
2023-05-02T05:32:52.437Z,45.9811
2023-05-02T05:33:53.883Z,46.0793
2023-05-02T05:34:55.281Z,45.8971
2023-05-02T05:35:56.712Z,46.0796
2023-05-02T05:36:58.104Z,46.0655
2023-05-02T05:37:59.564Z,45.8469
2023-05-02T05:39:00.921Z,45.8538
2023-05-02T05:40:02.899Z,46.0699
2023-05-02T05:41:03.759Z,46.1755
2023-05-02T05:42:05.264Z,45.9599
2023-05-02T05:43:06.688Z,46.0020
2023-05-02T05:44:08.077Z,46.0190
2023-05-02T05:45:09.445Z,46.1616
2023-05-02T05:46:10.881Z,46.3090
2023-05-02T05:47:12.490Z,46.3575
2023-05-02T05:48:13.846Z,46.5280
2023-05-02T05:49:15.144Z,46.6605
2023-05-02T05:50:16.623Z,46.7385
2023-05-02T05:51:17.989Z,46.8894
2023-05-02T05:52:19.525Z,46.8779
2023-05-02T05:53:20.896Z,46.8380
2023-05-02T05:54:22.298Z,46.8687
2023-05-02T05:55:23.656Z,47.1118
2023-05-02T05:56:25.100Z,47.0802
2023-05-02T05:57:26.529Z,46.9723
2023-05-02T05:58:27.979Z,47.0627
2023-05-02T05:59:29.328Z,47.0844
2023-05-02T06:00:30.777Z,47.0268
2023-05-02T06:01:32.156Z,47.0909
2023-05-02T06:02:33.734Z,47.1893
2023-05-02T06:03:35.222Z,47.0144
2023-05-02T06:04:36.527Z,47.0978
2023-05-02T06:05:37.851Z,47.0451
2023-05-02T06:06:39.361Z,47.1875
2023-05-02T06:07:40.725Z,47.1931
2023-05-02T06:08:42.160Z,47.1718
2023-05-02T06:09:43.597Z,47.2666
2023-05-02T06:10:44.986Z,47.1686
2023-05-02T06:11:46.303Z,47.2578
2023-05-02T06:12:49.255Z,47.2612
2023-05-02T06:13:49.272Z,47.2523
2023-05-02T06:14:50.705Z,47.1497
2023-05-02T06:15:52.061Z,47.1028
2023-05-02T06:16:53.468Z,47.1248
2023-05-02T06:17:55.009Z,47.2318
2023-05-02T06:18:56.364Z,47.2429
2023-05-02T06:19:58.081Z,47.1965
2023-05-02T06:20:59.118Z,47.1862
2023-05-02T06:22:00.602Z,47.1853
2023-05-02T06:23:02.059Z,47.2517
2023-05-02T06:24:03.504Z,47.2163
2023-05-02T06:25:04.900Z,47.1971
2023-05-02T06:26:06.307Z,47.2313
2023-05-02T06:27:07.723Z,47.2301
2023-05-02T06:28:09.135Z,47.1970
2023-05-02T06:29:10.601Z,47.2427
2023-05-02T06:30:11.921Z,47.2719
2023-05-02T06:31:13.477Z,47.2252
2023-05-02T06:32:14.769Z,47.2279
2023-05-02T06:33:16.293Z,47.2124
2023-05-02T06:34:17.689Z,47.1305
2023-05-02T06:35:19.094Z,47.0985
2023-05-02T06:36:20.472Z,47.1401
2023-05-02T06:37:21.864Z,47.2410
2023-05-02T06:38:23.368Z,47.3492
2023-05-02T06:39:24.766Z,47.3781
2023-05-02T06:40:26.205Z,47.2884
2023-05-02T06:41:27.612Z,47.3671
2023-05-02T06:42:29.045Z,47.2469
2023-05-02T06:43:30.480Z,46.7933
2023-05-02T06:44:31.910Z,46.6049
2023-05-02T06:45:33.265Z,46.5962
2023-05-02T06:46:34.769Z,46.2551
2023-05-02T06:47:36.163Z,45.9117
2023-05-02T06:48:37.593Z,46.0465
2023-05-02T06:49:39.025Z,46.0802
2023-05-02T06:50:40.448Z,45.7336
2023-05-02T06:51:41.817Z,45.9224
2023-05-02T06:52:43.252Z,45.7383
2023-05-02T06:53:44.686Z,45.5467
2023-05-02T06:54:46.212Z,45.5326
2023-05-02T06:55:47.509Z,45.4058
2023-05-02T06:56:48.874Z,45.5146
2023-05-02T06:57:50.372Z,45.2889
2023-05-02T06:58:51.848Z,45.3559
2023-05-02T06:59:53.555Z,45.2841
2023-05-02T07:00:54.742Z,45.2984
2023-05-02T07:01:56.038Z,45.1787
2023-05-02T07:02:57.574Z,45.1492
2023-05-02T07:03:58.927Z,45.1673
2023-05-02T07:05:00.334Z,44.9634
2023-05-02T07:06:01.715Z,44.9867
2023-05-02T07:07:03.144Z,45.1694
2023-05-02T07:08:04.530Z,45.2116
2023-05-02T07:09:06.026Z,45.0774
2023-05-02T07:10:07.398Z,44.8894
2023-05-02T07:11:08.872Z,44.7952
2023-05-02T07:12:10.213Z,44.8004
2023-05-02T07:13:11.688Z,44.8273
2023-05-02T07:14:13.026Z,45.0609
2023-05-02T07:15:14.550Z,44.9454
2023-05-02T07:16:15.864Z,45.0491
2023-05-02T07:17:17.359Z,45.5726
2023-05-02T07:18:18.830Z,45.4010
2023-05-02T07:19:20.250Z,45.1339
2023-05-02T07:20:21.698Z,45.2299
2023-05-02T07:21:23.052Z,45.2400
2023-05-02T07:22:24.470Z,45.1942
2023-05-02T07:23:25.845Z,45.1197
2023-05-02T07:24:27.307Z,45.0463
2023-05-02T07:25:28.735Z,45.2575
2023-05-02T07:26:30.173Z,45.2194
2023-05-02T07:27:31.560Z,45.0674
2023-05-02T07:28:33.001Z,44.9803
2023-05-02T07:29:34.412Z,44.8898
2023-05-02T07:30:35.857Z,44.9863
2023-05-02T07:31:37.237Z,45.0190
2023-05-02T07:32:38.681Z,45.1143
2023-05-02T07:33:40.047Z,44.9473
2023-05-02T07:34:41.406Z,45.1681
2023-05-02T07:35:42.980Z,45.0172
2023-05-02T07:36:44.364Z,45.2490
2023-05-02T07:37:45.713Z,45.3860
2023-05-02T07:38:47.199Z,45.6835
2023-05-02T07:39:48.553Z,45.6923
2023-05-02T07:40:50.053Z,45.8653
2023-05-02T07:41:51.456Z,46.0036
2023-05-02T07:42:52.849Z,45.8066
2023-05-02T07:43:54.234Z,45.8447
2023-05-02T07:44:55.689Z,45.9010
2023-05-02T07:45:57.172Z,45.9816
2023-05-02T07:46:58.584Z,46.0354
2023-05-02T07:47:59.957Z,46.1339
2023-05-02T07:49:01.379Z,46.1541
2023-05-02T07:50:03.006Z,45.9831
2023-05-02T07:51:04.289Z,46.0124
2023-05-02T07:52:05.693Z,46.1585
2023-05-02T07:53:07.077Z,46.1881
2023-05-02T07:54:08.480Z,46.3580
2023-05-02T07:55:09.944Z,46.2830
2023-05-02T07:56:11.388Z,46.0178
2023-05-02T07:57:12.807Z,46.1376
2023-05-02T07:58:14.193Z,46.2477
2023-05-02T07:59:15.610Z,46.3297
2023-05-02T08:00:17.017Z,46.1968
2023-05-02T08:01:18.543Z,46.3788
2023-05-02T08:02:20.034Z,46.2845
2023-05-02T08:03:21.451Z,46.1260
2023-05-02T08:04:22.896Z,46.2179
2023-05-02T08:05:24.165Z,46.2553
2023-05-02T08:06:25.689Z,46.3792
2023-05-02T08:07:27.046Z,46.3872
2023-05-02T08:08:28.373Z,46.3894
2023-05-02T08:09:29.845Z,46.2165
2023-05-02T08:10:31.257Z,46.5007
2023-05-02T08:11:32.677Z,46.6814
2023-05-02T08:12:34.180Z,46.6865
2023-05-02T08:13:35.640Z,46.6475
2023-05-02T08:14:36.912Z,46.4802
2023-05-02T08:15:38.585Z,46.2993
2023-05-02T08:16:40.040Z,46.2925
2023-05-02T08:17:41.355Z,46.2667
2023-05-02T08:18:42.674Z,46.1613
2023-05-02T08:19:44.065Z,46.2390
2023-05-02T08:20:45.514Z,46.5354
2023-05-02T08:21:46.960Z,46.4614
2023-05-02T08:22:48.397Z,46.4693
2023-05-02T08:23:49.799Z,46.5460
2023-05-02T08:24:51.175Z,46.4224
2023-05-02T08:25:52.616Z,46.2506
2023-05-02T08:26:54.074Z,46.1957
2023-05-02T08:27:55.493Z,46.0970
2023-05-02T08:28:56.917Z,45.6475
2023-05-02T08:30:00.658Z,46.0160
2023-05-02T08:30:59.697Z,45.7479
2023-05-02T08:32:01.280Z,45.5718
2023-05-02T08:33:02.618Z,45.9060
2023-05-02T08:34:04.009Z,46.0250
2023-05-02T08:35:05.424Z,46.1513
2023-05-02T08:36:06.852Z,46.3244
2023-05-02T08:37:08.299Z,46.3596
2023-05-02T08:38:09.732Z,46.3033
2023-05-02T08:39:11.093Z,46.3418
2023-05-02T08:40:12.550Z,46.4877
2023-05-02T08:41:13.958Z,46.6372
2023-05-02T08:42:15.359Z,46.6347
2023-05-02T08:43:16.797Z,46.6139
2023-05-02T08:44:18.207Z,46.8434
2023-05-02T08:45:19.555Z,46.7124
2023-05-02T08:46:21.011Z,46.8620
2023-05-02T08:47:22.617Z,46.5986
2023-05-02T08:48:23.953Z,46.5777
2023-05-02T08:49:25.323Z,46.1955
2023-05-02T08:50:26.772Z,46.1043
2023-05-02T08:51:28.088Z,46.1115
2023-05-02T08:52:29.506Z,46.0290
2023-05-02T08:53:31.027Z,45.7796
2023-05-02T08:54:32.422Z,45.6395
2023-05-02T08:55:33.748Z,46.1985
2023-05-02T08:56:35.205Z,46.1275
2023-05-02T08:57:36.668Z,46.3373
2023-05-02T08:58:38.154Z,46.3198
2023-05-02T08:59:39.546Z,46.0087
2023-05-02T09:00:40.991Z,46.2088
2023-05-02T09:01:42.371Z,46.0571
2023-05-02T09:02:43.865Z,46.4221
2023-05-02T09:03:45.205Z,46.4201
2023-05-02T09:04:46.769Z,46.3632
2023-05-02T09:05:47.999Z,46.6065
2023-05-02T09:06:49.499Z,46.3800
2023-05-02T09:07:50.832Z,46.4386
2023-05-02T09:08:52.276Z,46.3537
2023-05-02T09:09:53.729Z,46.3478
2023-05-02T09:10:55.213Z,46.4515
2023-05-02T09:11:56.475Z,46.2965
2023-05-02T09:12:57.981Z,46.2846
2023-05-02T09:13:59.388Z,46.3218
2023-05-02T09:15:01.033Z,46.1506
2023-05-02T09:16:02.208Z,46.0700
2023-05-02T09:17:03.844Z,46.1531
2023-05-02T09:18:05.151Z,46.0175
2023-05-02T09:19:06.497Z,46.1517
2023-05-02T09:20:07.913Z,46.0116
2023-05-02T09:21:09.379Z,46.0630
2023-05-02T09:22:10.791Z,46.0065
2023-05-02T09:23:12.249Z,46.0103
2023-05-02T09:24:13.677Z,46.0029
2023-05-02T09:25:15.098Z,46.0011
2023-05-02T09:26:16.464Z,46.0327
2023-05-02T09:27:17.900Z,45.9131
2023-05-02T09:28:19.270Z,45.8793
2023-05-02T09:29:20.714Z,45.8392
2023-05-02T09:30:22.235Z,45.9556
2023-05-02T09:32:24.987Z,45.9081
2023-05-02T09:33:26.467Z,45.8927
2023-05-02T09:34:27.825Z,45.8221
2023-05-02T09:35:29.326Z,45.7434
2023-05-02T09:36:30.727Z,45.6969
2023-05-02T09:37:32.182Z,45.6781
2023-05-02T09:38:33.529Z,45.6757
2023-05-02T09:39:34.973Z,45.6710
2023-05-02T09:40:36.399Z,45.6703
2023-05-02T09:41:37.858Z,45.6634
2023-05-02T09:42:39.230Z,45.7837
2023-05-02T09:43:40.683Z,45.6768
2023-05-02T09:44:42.061Z,45.6611
2023-05-02T09:45:43.592Z,45.6894
2023-05-02T09:46:45.034Z,45.6819
2023-05-02T09:47:46.361Z,45.6509
2023-05-02T09:48:47.776Z,45.6146
2023-05-02T09:49:49.241Z,45.5129
2023-05-02T09:50:50.691Z,45.4752
2023-05-02T09:51:52.153Z,45.3293
2023-05-02T09:52:53.499Z,45.1608
2023-05-02T09:53:54.984Z,45.1690
2023-05-02T09:54:56.363Z,45.0761
2023-05-02T09:55:57.840Z,45.0015
2023-05-02T09:56:59.225Z,45.0072
2023-05-02T09:58:00.594Z,44.9261
2023-05-02T09:59:02.050Z,44.9612
2023-05-02T10:00:03.756Z,44.9351
2023-05-02T10:01:05.002Z,44.7677
2023-05-02T10:02:06.323Z,44.7370
2023-05-02T10:03:07.823Z,44.6972
2023-05-02T10:04:09.658Z,44.8737
2023-05-02T10:05:10.615Z,44.9285
2023-05-02T10:06:12.158Z,45.0351
2023-05-02T10:07:13.568Z,44.9884
2023-05-02T10:08:14.902Z,45.0829
2023-05-02T10:09:19.783Z,45.0247
2023-05-02T10:10:17.707Z,44.9694
2023-05-02T10:11:19.242Z,45.0611
2023-05-02T10:12:20.570Z,45.0874
2023-05-02T10:13:21.988Z,45.1744
2023-05-02T10:14:23.402Z,45.1526
2023-05-02T10:15:24.820Z,45.1889
2023-05-02T10:16:26.282Z,45.2480
2023-05-02T10:17:27.730Z,45.2233
2023-05-02T10:18:29.097Z,45.2854
2023-05-02T10:19:30.492Z,45.2613
2023-05-02T10:20:31.970Z,45.2447
2023-05-02T10:21:33.429Z,45.2171
2023-05-02T10:22:34.835Z,45.1413
2023-05-02T10:23:36.142Z,45.0670
2023-05-02T10:24:37.645Z,45.1552
2023-05-02T10:25:39.050Z,45.1203
2023-05-02T10:26:40.474Z,45.0299
2023-05-02T10:27:41.876Z,45.0271
2023-05-02T10:28:43.407Z,44.9817
2023-05-02T10:29:44.701Z,44.8579
2023-05-02T10:30:46.134Z,44.9098
2023-05-02T10:31:47.603Z,44.9081
2023-05-02T10:32:49.053Z,44.8992
2023-05-02T10:33:50.424Z,44.9465
2023-05-02T10:34:51.831Z,44.9786
2023-05-02T10:35:53.240Z,44.9678
2023-05-02T10:36:54.675Z,44.9339
2023-05-02T10:37:56.105Z,44.8955
2023-05-02T10:38:57.589Z,44.8790
2023-05-02T10:39:58.984Z,44.8767
2023-05-02T10:41:00.337Z,44.9102
2023-05-02T10:42:01.759Z,44.9175
2023-05-02T10:43:03.187Z,44.9115
2023-05-02T10:44:04.676Z,44.8990
2023-05-02T10:45:06.025Z,44.8904
2023-05-02T10:46:07.478Z,44.8750
2023-05-02T10:47:08.834Z,44.9044
2023-05-02T10:48:10.402Z,44.8873
2023-05-02T10:49:11.713Z,44.9123
2023-05-02T10:50:13.167Z,44.8965
2023-05-02T10:51:14.554Z,44.8556
2023-05-02T10:52:15.888Z,44.8341
2023-05-02T10:53:17.395Z,44.8584
2023-05-02T10:54:18.858Z,44.7720
2023-05-02T10:55:20.214Z,44.8171
2023-05-02T10:56:21.679Z,44.9255
2023-05-02T10:57:23.029Z,44.9279
2023-05-02T10:58:24.559Z,44.9880
2023-05-02T10:59:25.924Z,44.8717
2023-05-02T11:00:27.398Z,44.8093
2023-05-02T11:01:28.858Z,44.6724
2023-05-02T11:02:30.227Z,44.7801
2023-05-02T11:03:31.620Z,44.7509
2023-05-02T11:04:33.056Z,44.5964
2023-05-02T11:05:34.427Z,44.5761
2023-05-02T11:06:35.908Z,44.6653
2023-05-02T11:07:37.232Z,44.6568
2023-05-02T11:08:38.617Z,44.7269
2023-05-02T11:09:40.128Z,44.7023
2023-05-02T11:10:41.575Z,44.7209
2023-05-02T11:11:43.299Z,44.8162
2023-05-02T11:12:44.309Z,44.7003
2023-05-02T11:13:45.778Z,44.5676
2023-05-02T11:14:47.314Z,44.6828
2023-05-02T11:15:48.678Z,44.6754
2023-05-02T11:16:50.085Z,44.6691
2023-05-02T11:17:51.448Z,44.9355
2023-05-02T11:18:52.875Z,44.8741
2023-05-02T11:19:54.318Z,44.7412
2023-05-02T11:20:55.765Z,44.6862
2023-05-02T11:21:57.119Z,44.6287
2023-05-02T11:22:58.604Z,44.7222
2023-05-02T11:23:59.933Z,44.6905
2023-05-02T11:25:01.748Z,44.5357
2023-05-02T11:26:02.859Z,44.6857
2023-05-02T11:27:04.245Z,44.7176
2023-05-02T11:28:05.681Z,44.7603
2023-05-02T11:29:07.090Z,44.6040
2023-05-02T11:30:08.491Z,44.8426
2023-05-02T11:31:09.974Z,44.4744
2023-05-02T11:32:11.348Z,44.5533
2023-05-02T11:33:12.808Z,44.4885
2023-05-02T11:34:14.141Z,44.6908
2023-05-02T11:35:15.612Z,44.8252
2023-05-02T11:36:17.152Z,44.9089
2023-05-02T11:37:18.449Z,44.8961
2023-05-02T11:38:19.878Z,44.7644
2023-05-02T11:39:21.302Z,44.6947
2023-05-02T11:40:22.722Z,44.6316
2023-05-02T11:41:24.195Z,44.7511
2023-05-02T11:42:25.554Z,44.7736
2023-05-02T11:43:28.165Z,44.9027
2023-05-02T11:44:28.360Z,44.8217
2023-05-02T11:45:29.884Z,44.8305
2023-05-02T11:46:31.340Z,44.8938
2023-05-02T11:47:32.762Z,44.9685
2023-05-02T11:48:34.161Z,45.0216
2023-05-02T11:49:35.527Z,45.1398
2023-05-02T11:50:37.728Z,45.1880
2023-05-02T11:51:38.426Z,45.1438
2023-05-02T11:52:39.746Z,45.0977
2023-05-02T11:53:41.250Z,44.8718
2023-05-02T11:54:42.613Z,44.8364
2023-05-02T11:55:44.022Z,44.8910
2023-05-02T11:56:45.510Z,44.8862
2023-05-02T11:57:46.977Z,44.9449
2023-05-02T11:58:48.288Z,45.0353
2023-05-02T11:59:49.758Z,45.0436
2023-05-02T12:00:51.147Z,44.9473
2023-05-02T12:01:52.625Z,44.8348
2023-05-02T12:02:54.064Z,44.7893
2023-05-02T12:03:55.531Z,44.6856
2023-05-02T12:04:56.811Z,44.7952
2023-05-02T12:05:58.285Z,44.8898
2023-05-02T12:06:59.708Z,44.9702
2023-05-02T12:08:01.180Z,44.8425
2023-05-02T12:09:02.493Z,44.9234
2023-05-02T12:10:03.974Z,45.1444
2023-05-02T12:11:05.344Z,44.9865
2023-05-02T12:12:06.852Z,45.0583
2023-05-02T12:13:10.103Z,45.1057
2023-05-02T12:14:09.633Z,45.3237
2023-05-02T12:15:11.134Z,45.2200
2023-05-02T12:16:12.618Z,45.2559
2023-05-02T12:17:13.931Z,45.2872
2023-05-02T12:18:15.395Z,45.2867
2023-05-02T12:19:16.823Z,45.3365
2023-05-02T12:20:18.295Z,45.2589
2023-05-02T12:21:19.636Z,45.2954
2023-05-02T12:22:21.121Z,45.2724
2023-05-02T12:23:22.505Z,45.1754